createdAt,value
2018-01-14T00:00:08.088Z,39.9
2018-01-14T00:02:05.825Z,39.9
2018-01-14T00:04:05.622Z,39.8
2018-01-14T00:06:05.385Z,39.9
2018-01-14T00:08:05.144Z,39.8
2018-01-14T00:10:05.920Z,39.8
2018-01-14T00:12:05.668Z,39.8
2018-01-14T00:14:05.493Z,39.8
2018-01-14T00:16:08.334Z,39.8
2018-01-14T00:18:07.848Z,39.8
2018-01-14T00:20:08.110Z,39.8
2018-01-14T00:22:06.067Z,39.8
2018-01-14T00:24:10.901Z,39.8
2018-01-14T00:26:05.935Z,39.9
2018-01-14T00:28:05.190Z,39.8
2018-01-14T00:30:05.958Z,39.8
2018-01-14T00:32:05.719Z,39.8
2018-01-14T00:34:05.546Z,39.8
2018-01-14T00:36:05.324Z,39.8
2018-01-14T00:38:05.148Z,39.8
2018-01-14T00:40:06.241Z,39.8
2018-01-14T00:42:06.028Z,39.9
2018-01-14T00:44:08.342Z,39.8
2018-01-14T00:46:05.635Z,39.7
2018-01-14T00:48:05.380Z,39.8
2018-01-14T00:50:05.509Z,39.8
2018-01-14T00:52:07.760Z,39.8
2018-01-14T00:54:05.486Z,39.8
2018-01-14T00:56:06.030Z,39.8
2018-01-14T00:58:05.990Z,39.9
2018-01-14T01:00:05.762Z,39.9
2018-01-14T01:02:10.546Z,39.9
2018-01-14T01:04:07.797Z,39.9
2018-01-14T01:06:05.623Z,39.8
2018-01-14T01:08:05.358Z,39.9
2018-01-14T01:10:05.076Z,39.9
2018-01-14T01:12:05.817Z,39.9
2018-01-14T01:14:05.584Z,39.9
2018-01-14T01:16:07.813Z,40
2018-01-14T01:18:05.765Z,39.9
2018-01-14T01:20:05.466Z,39.9
2018-01-14T01:22:05.213Z,39.9
2018-01-14T01:24:05.991Z,39.8
2018-01-14T01:26:10.359Z,39.9
2018-01-14T01:28:05.137Z,39.9
2018-01-14T01:30:05.857Z,39.9
2018-01-14T01:32:10.685Z,39.8
2018-01-14T01:34:05.421Z,39.6
2018-01-14T01:36:05.464Z,39.9
2018-01-14T01:38:05.220Z,39.8
2018-01-14T01:40:06.085Z,39.8
2018-01-14T01:42:08.430Z,39.8
2018-01-14T01:44:07.767Z,39.8
2018-01-14T01:46:05.581Z,39.8
2018-01-14T01:48:05.831Z,39.6
2018-01-14T01:50:05.569Z,39.6
2018-01-14T01:52:05.346Z,39.8
2018-01-14T01:54:05.227Z,39.6
2018-01-14T01:56:08.484Z,39.6
2018-01-14T01:58:05.271Z,39.6
2018-01-14T02:00:06.020Z,39.6
2018-01-14T02:02:05.361Z,39.7
2018-01-14T02:04:05.621Z,39.6
2018-01-14T02:06:06.182Z,39.6
2018-01-14T02:08:05.492Z,39.6
2018-01-14T02:10:05.846Z,39.6
2018-01-14T02:12:05.691Z,39.6
2018-01-14T02:14:05.434Z,39.8
2018-01-14T02:16:05.228Z,39.6
2018-01-14T02:18:05.162Z,39.6
2018-01-14T02:20:05.929Z,39.5
2018-01-14T02:22:05.645Z,39.5
2018-01-14T02:24:05.407Z,39.4
2018-01-14T02:26:07.765Z,39.5
2018-01-14T02:28:05.510Z,39.5
2018-01-14T02:30:05.305Z,39.5
2018-01-14T02:32:07.744Z,39.4
2018-01-14T02:34:08.577Z,39.5
2018-01-14T02:36:05.397Z,39.5
2018-01-14T02:38:05.189Z,39.5
2018-01-14T02:40:05.972Z,39.6
2018-01-14T02:42:05.756Z,39.6
2018-01-14T02:44:08.039Z,39.6
2018-01-14T02:46:05.784Z,39.6
2018-01-14T02:48:05.625Z,39.6
2018-01-14T02:50:05.989Z,39.6
2018-01-14T02:52:05.846Z,39.6
2018-01-14T02:54:05.654Z,39.6
2018-01-14T02:56:05.518Z,39.6
2018-01-14T02:58:05.311Z,39.6
2018-01-14T03:00:07.634Z,39.6
2018-01-14T03:02:05.433Z,39.6
2018-01-14T03:04:05.199Z,39.6
2018-01-14T03:06:06.243Z,39.6
2018-01-14T03:08:06.006Z,39.6
2018-01-14T03:10:05.756Z,39.5
2018-01-14T03:12:05.616Z,39.5
2018-01-14T03:14:05.368Z,39.6
2018-01-14T03:16:05.116Z,39.8
2018-01-14T03:18:05.077Z,39.6
2018-01-14T03:20:05.821Z,39.6
2018-01-14T03:22:05.558Z,39.6
2018-01-14T03:24:05.720Z,39.5
2018-01-14T03:26:05.530Z,39.6
2018-01-14T03:28:05.286Z,39.6
2018-01-14T03:30:05.608Z,39.6
2018-01-14T03:32:05.338Z,39.6
2018-01-14T03:34:05.090Z,39.6
2018-01-14T03:36:08.442Z,39.6
2018-01-14T03:38:05.183Z,39.6
2018-01-14T03:40:05.554Z,39.5
2018-01-14T03:42:05.324Z,39.5
2018-01-14T03:44:05.590Z,39.6
2018-01-14T03:46:05.347Z,39.6
2018-01-14T03:48:05.456Z,39.6
2018-01-14T03:50:05.213Z,39.5
2018-01-14T03:52:06.046Z,39.5
2018-01-14T03:54:06.131Z,39.6
2018-01-14T03:56:05.897Z,39.6
2018-01-14T03:58:05.701Z,39.6
2018-01-14T04:00:05.474Z,39.5
2018-01-14T04:02:07.882Z,39.6
2018-01-14T04:04:05.236Z,39.6
2018-01-14T04:06:06.008Z,39.6
2018-01-14T04:08:05.807Z,39.6
2018-01-14T04:10:05.516Z,39.5
2018-01-14T04:12:05.373Z,39.5
2018-01-14T04:14:07.609Z,39.4
2018-01-14T04:16:05.358Z,39.4
2018-01-14T04:18:05.916Z,39.5
2018-01-14T04:20:05.226Z,39.2
2018-01-14T04:22:05.967Z,39.3
2018-01-14T04:24:05.786Z,39.5
2018-01-14T04:26:05.551Z,39.4
2018-01-14T04:28:05.292Z,39.3
2018-01-14T04:30:05.086Z,39.3
2018-01-14T04:32:05.965Z,39.5
2018-01-14T04:34:05.850Z,39.3
2018-01-14T04:36:05.610Z,39.4
2018-01-14T04:38:05.593Z,39.2
2018-01-14T04:40:05.580Z,39.2
2018-01-14T04:42:05.986Z,39.4
2018-01-14T04:44:12.882Z,39.2
2018-01-14T04:46:05.648Z,39.2
2018-01-14T04:48:05.610Z,39.5
2018-01-14T04:50:05.392Z,39.5
2018-01-14T04:52:05.235Z,39.2
2018-01-14T04:54:06.246Z,39.2
2018-01-14T04:56:06.043Z,39.2
2018-01-14T04:58:08.417Z,39.3
2018-01-14T05:00:05.196Z,39.2
2018-01-14T05:02:05.940Z,39.3
2018-01-14T05:04:05.702Z,39.3
2018-01-14T05:06:05.645Z,39.3
2018-01-14T05:08:05.953Z,39.3
2018-01-14T05:10:05.763Z,39.3
2018-01-14T05:12:08.048Z,39.3
2018-01-14T05:14:08.306Z,39.4
2018-01-14T05:16:05.552Z,39.3
2018-01-14T05:18:06.015Z,39.3
2018-01-14T05:20:05.807Z,39.4
2018-01-14T05:22:05.581Z,39.3
2018-01-14T05:24:05.598Z,39.3
2018-01-14T05:26:05.412Z,39.4
2018-01-14T05:28:10.808Z,39.3
2018-01-14T05:30:10.698Z,39.4
2018-01-14T05:32:05.612Z,39.3
2018-01-14T05:34:05.465Z,39.3
2018-01-14T05:36:05.779Z,39.3
2018-01-14T05:38:05.564Z,39.3
2018-01-14T05:40:07.865Z,39.3
2018-01-14T05:42:07.798Z,39.2
2018-01-14T05:44:08.434Z,39.2
2018-01-14T05:46:07.996Z,39.3
2018-01-14T05:48:06.442Z,39.3
2018-01-14T05:50:05.248Z,39.2
2018-01-14T05:52:05.053Z,39.2
2018-01-14T05:54:08.421Z,39.2
2018-01-14T05:56:05.335Z,39.2
2018-01-14T05:58:07.746Z,39.2
2018-01-14T06:00:05.796Z,39.2
2018-01-14T06:02:05.585Z,39.2
2018-01-14T06:04:08.036Z,39.2
2018-01-14T06:06:05.377Z,39.2
2018-01-14T06:08:05.132Z,39.2
2018-01-14T06:10:05.907Z,39.2
2018-01-14T06:12:05.706Z,39.2
2018-01-14T06:14:05.518Z,39.2
2018-01-14T06:16:05.560Z,39.2
2018-01-14T06:18:08.104Z,39.2
2018-01-14T06:20:05.941Z,39.2
2018-01-14T06:22:05.701Z,39.2
2018-01-14T06:24:05.842Z,39.2
2018-01-14T06:26:05.576Z,39.2
2018-01-14T06:28:05.411Z,39.2
2018-01-14T06:30:05.190Z,39.2
2018-01-14T06:32:05.936Z,39.2
2018-01-14T06:34:05.677Z,39.1
2018-01-14T06:36:06.224Z,39.2
2018-01-14T06:38:08.521Z,39
2018-01-14T06:40:05.786Z,39.1
2018-01-14T06:42:08.083Z,39.2
2018-01-14T06:44:05.362Z,38.9
2018-01-14T06:46:05.657Z,39.2
2018-01-14T06:48:05.499Z,39
2018-01-14T06:50:10.400Z,39
2018-01-14T06:52:05.255Z,39.2
2018-01-14T06:54:05.024Z,39.2
2018-01-14T06:56:05.820Z,39
2018-01-14T06:58:05.564Z,39.2
2018-01-14T07:00:08.680Z,38.9
2018-01-14T07:02:06.117Z,38.9
2018-01-14T07:04:08.422Z,39
2018-01-14T07:06:05.254Z,39
2018-01-14T07:08:06.027Z,39
2018-01-14T07:10:05.797Z,39
2018-01-14T07:12:05.069Z,39
2018-01-14T07:14:05.772Z,39.2
2018-01-14T07:16:08.112Z,39
2018-01-14T07:18:05.415Z,39
2018-01-14T07:20:05.296Z,39
2018-01-14T07:22:05.085Z,39.3
2018-01-14T07:24:05.382Z,39
2018-01-14T07:26:05.265Z,39.1
2018-01-14T07:28:05.988Z,39
2018-01-14T07:30:05.707Z,39.3
2018-01-14T07:32:13.056Z,39
2018-01-14T07:34:05.912Z,39
2018-01-14T07:36:05.733Z,39
2018-01-14T07:38:05.532Z,39.1
2018-01-14T07:40:05.306Z,39.1
2018-01-14T07:42:05.144Z,39.3
2018-01-14T07:44:05.398Z,39.1
2018-01-14T07:46:05.263Z,39.1
2018-01-14T07:48:05.215Z,39.1
2018-01-14T07:50:05.457Z,39.1
2018-01-14T07:52:05.271Z,39.1
2018-01-14T07:54:05.595Z,39.1
2018-01-14T07:56:07.844Z,39.1
2018-01-14T07:58:05.596Z,39.1
2018-01-14T08:00:08.163Z,39.1
2018-01-14T08:02:05.580Z,39.1
2018-01-14T08:04:05.479Z,39.2
2018-01-14T08:06:05.460Z,39.1
2018-01-14T08:08:05.342Z,39.1
2018-01-14T08:10:05.372Z,39.4
2018-01-14T08:12:10.821Z,39.4
2018-01-14T08:14:07.671Z,39.4
2018-01-14T08:16:05.468Z,39.4
2018-01-14T08:18:08.384Z,39.5
2018-01-14T08:20:05.520Z,39.5
2018-01-14T08:22:05.318Z,39.5
2018-01-14T08:24:05.472Z,39.3
2018-01-14T08:26:05.257Z,39.5
2018-01-14T08:28:11.118Z,39.5
2018-01-14T08:30:05.924Z,39.5
2018-01-14T08:32:05.694Z,39.5
2018-01-14T08:34:10.530Z,39.5
2018-01-14T08:36:05.237Z,39.5
2018-01-14T08:38:06.050Z,39.5
2018-01-14T08:40:05.814Z,39.6
2018-01-14T08:42:05.590Z,39.8
2018-01-14T08:44:05.323Z,39.8
2018-01-14T08:46:05.153Z,39.8
2018-01-14T08:48:05.896Z,39.7
2018-01-14T08:50:05.634Z,39.7
2018-01-14T08:52:05.614Z,39.7
2018-01-14T08:54:07.978Z,39.6
2018-01-14T08:56:05.758Z,39.6
2018-01-14T08:58:06.037Z,39.6
2018-01-14T09:00:07.871Z,39.9
2018-01-14T09:02:05.168Z,39.6
2018-01-14T09:04:05.971Z,39.6
2018-01-14T09:06:05.795Z,39.8
2018-01-14T09:08:05.601Z,39.8
2018-01-14T09:10:05.588Z,39.8
2018-01-14T09:12:07.888Z,39.8
2018-01-14T09:14:05.698Z,39.8
2018-01-14T09:16:05.977Z,39.8
2018-01-14T09:18:11.069Z,40
2018-01-14T09:20:05.344Z,39.9
2018-01-14T09:22:15.703Z,39.8
2018-01-14T09:24:05.494Z,39.8
2018-01-14T09:26:05.770Z,40
2018-01-14T09:28:05.563Z,40
2018-01-14T09:30:05.907Z,39.9
2018-01-14T09:32:05.677Z,39.8
2018-01-14T09:34:07.986Z,40
2018-01-14T09:36:05.830Z,39.7
2018-01-14T09:38:05.635Z,39.9
2018-01-14T09:40:05.386Z,39.8
2018-01-14T09:42:05.658Z,39.9
2018-01-14T09:44:18.016Z,39.7
2018-01-14T09:46:05.761Z,39.7
2018-01-14T09:48:13.436Z,39.6
2018-01-14T09:50:05.184Z,39.6
2018-01-14T09:52:05.964Z,39.6
2018-01-14T09:54:08.323Z,39.6
2018-01-14T09:56:05.663Z,39.6
2018-01-14T09:58:10.521Z,39.5
2018-01-14T10:00:05.310Z,39.6
2018-01-14T10:02:05.057Z,39.6
2018-01-14T10:04:05.856Z,39.6
2018-01-14T10:06:05.592Z,39.6
2018-01-14T10:08:05.439Z,39.6
2018-01-14T10:10:05.178Z,39.6
2018-01-14T10:12:05.245Z,39.5
2018-01-14T10:14:05.481Z,39.3
2018-01-14T10:16:05.217Z,39.3
2018-01-14T10:18:05.152Z,39.3
2018-01-14T10:20:05.992Z,39.2
2018-01-14T10:22:10.789Z,39.2
2018-01-14T10:24:05.596Z,39.2
2018-01-14T10:26:05.623Z,39.2
2018-01-14T10:28:06.803Z,39.4
2018-01-14T10:30:05.584Z,39.2
2018-01-14T10:32:05.130Z,39.1
2018-01-14T10:34:10.177Z,39.2
2018-01-14T10:36:08.476Z,39.2
2018-01-14T10:38:10.265Z,39.1
2018-01-14T10:40:06.475Z,39.3
2018-01-14T10:42:05.255Z,39.1
2018-01-14T10:44:05.486Z,39.2
2018-01-14T10:46:08.262Z,39.2
2018-01-14T10:48:06.045Z,39.2
2018-01-14T10:50:05.875Z,39.1
2018-01-14T10:52:05.702Z,39
2018-01-14T10:54:06.698Z,39.1
2018-01-14T10:56:07.985Z,39.1
2018-01-14T10:58:05.972Z,39.1
2018-01-14T11:00:05.755Z,39.1
2018-01-14T11:02:06.595Z,39.1
2018-01-14T11:04:07.906Z,39.2
2018-01-14T11:06:08.273Z,39.1
2018-01-14T11:08:05.407Z,39.1
2018-01-14T11:10:05.409Z,39.1
2018-01-14T11:12:05.208Z,39.1
2018-01-14T11:14:06.977Z,39.2
2018-01-14T11:16:05.782Z,39.2
2018-01-14T11:18:08.272Z,39.2
2018-01-14T11:20:05.050Z,39.2
2018-01-14T11:22:05.830Z,39.2
2018-01-14T11:24:06.385Z,39.2
2018-01-14T11:26:07.729Z,39.2
2018-01-14T11:28:05.500Z,39.2
2018-01-14T11:30:12.870Z,39.1
2018-01-14T11:32:05.648Z,39.1
2018-01-14T11:34:08.448Z,39.1
2018-01-14T11:36:05.254Z,39.2
2018-01-14T11:38:08.111Z,39.2
2018-01-14T11:40:06.034Z,39.2
2018-01-14T11:42:06.159Z,39.2
2018-01-14T11:44:05.935Z,39
2018-01-14T11:46:05.902Z,39
2018-01-14T11:48:08.211Z,39.1
2018-01-14T11:50:06.148Z,39
2018-01-14T11:52:05.924Z,39.1
2018-01-14T11:54:08.429Z,39
2018-01-14T11:56:05.129Z,39
2018-01-14T11:58:06.920Z,39
2018-01-14T12:00:05.972Z,39.2
2018-01-14T12:02:05.432Z,39.2
2018-01-14T12:04:05.157Z,39.1
2018-01-14T12:06:05.936Z,39.1
2018-01-14T12:08:05.337Z,39
2018-01-14T12:10:05.112Z,39.3
2018-01-14T12:12:05.883Z,39.3
2018-01-14T12:14:05.886Z,39.2
2018-01-14T12:16:05.677Z,39.2
2018-01-14T12:18:05.644Z,39.2
2018-01-14T12:20:05.592Z,39.2
2018-01-14T12:22:05.107Z,39.2
2018-01-14T12:24:05.878Z,39.2
2018-01-14T12:26:05.595Z,39
2018-01-14T12:28:05.382Z,38.9
2018-01-14T12:30:05.347Z,38.9
2018-01-14T12:32:05.921Z,38.9
2018-01-14T12:34:05.883Z,38.9
2018-01-14T12:36:05.886Z,38.9
2018-01-14T12:38:07.805Z,39
2018-01-14T12:40:10.842Z,39
2018-01-14T12:42:05.630Z,39
2018-01-14T12:44:06.029Z,38.9
2018-01-14T12:46:05.330Z,38.9
2018-01-14T12:48:05.951Z,39.2
2018-01-14T12:50:08.238Z,39
2018-01-14T12:52:08.485Z,38.9
2018-01-14T12:54:05.759Z,38.9
2018-01-14T12:56:15.643Z,38.8
2018-01-14T12:58:05.706Z,38.9
2018-01-14T13:00:05.483Z,38.9
2018-01-14T13:02:05.544Z,38.9
2018-01-14T13:04:05.295Z,39.1
2018-01-14T13:06:07.970Z,39.1
2018-01-14T13:08:05.839Z,39
2018-01-14T13:10:08.178Z,39.1
2018-01-14T13:12:05.734Z,39.1
2018-01-14T13:14:05.723Z,39.1
2018-01-14T13:16:05.583Z,39
2018-01-14T13:18:08.173Z,39.2
2018-01-14T13:20:08.529Z,38.9
2018-01-14T13:22:05.429Z,38.9
2018-01-14T13:24:06.099Z,38.9
2018-01-14T13:26:05.840Z,38.9
2018-01-14T13:28:05.571Z,38.9
2018-01-14T13:30:08.198Z,39
2018-01-14T13:32:05.924Z,39
2018-01-14T13:34:05.663Z,39.1
2018-01-14T13:36:10.434Z,39.1
2018-01-14T13:38:05.183Z,39.1
2018-01-14T13:40:05.915Z,39.1
2018-01-14T13:42:06.206Z,39
2018-01-14T13:44:11.040Z,39
2018-01-14T13:46:05.381Z,39
2018-01-14T13:48:05.198Z,39
2018-01-14T13:50:05.965Z,39
2018-01-14T13:52:05.726Z,39
2018-01-14T13:54:05.493Z,38.9
2018-01-14T13:56:06.070Z,39.1
2018-01-14T13:58:05.860Z,39
2018-01-14T14:00:05.898Z,39.2
2018-01-14T14:02:07.711Z,39
2018-01-14T14:04:11.092Z,39
2018-01-14T14:06:05.871Z,39.2
2018-01-14T14:08:05.136Z,39.3
2018-01-14T14:10:10.945Z,39.2
2018-01-14T14:12:05.669Z,39.2
2018-01-14T14:14:06.099Z,39.2
2018-01-14T14:16:10.845Z,39.2
2018-01-14T14:18:08.397Z,39.2
2018-01-14T14:20:05.702Z,39.2
2018-01-14T14:22:05.465Z,39.2
2018-01-14T14:24:05.204Z,39.2
2018-01-14T14:26:10.647Z,39.1
2018-01-14T14:28:05.507Z,39.1
2018-01-14T14:30:05.304Z,39.2
2018-01-14T14:32:05.359Z,39.2
2018-01-14T14:34:07.623Z,39.2
2018-01-14T14:36:05.736Z,39.2
2018-01-14T14:38:05.596Z,39.2
2018-01-14T14:40:05.925Z,39.2
2018-01-14T14:42:08.212Z,39.1
2018-01-14T14:44:05.997Z,39.1
2018-01-14T14:46:08.307Z,39.1
2018-01-14T14:48:07.967Z,39.1
2018-01-14T14:50:05.697Z,39
2018-01-14T14:52:05.471Z,39.1
2018-01-14T14:54:13.117Z,39.1
2018-01-14T14:56:05.930Z,39.1
2018-01-14T14:58:05.742Z,39
2018-01-14T15:00:11.084Z,39
2018-01-14T15:02:05.396Z,39
2018-01-14T15:04:05.507Z,39.1
2018-01-14T15:06:05.452Z,39.1
2018-01-14T15:08:05.227Z,39.1
2018-01-14T15:10:05.569Z,39.1
2018-01-14T15:12:05.309Z,38.9
2018-01-14T15:14:05.104Z,39
2018-01-14T15:16:05.859Z,38.9
2018-01-14T15:18:05.879Z,39
2018-01-14T15:20:05.700Z,39
2018-01-14T15:22:05.457Z,39
2018-01-14T15:24:08.312Z,39.1
2018-01-14T15:26:07.570Z,39
2018-01-14T15:28:05.267Z,39
2018-01-14T15:30:06.316Z,39
2018-01-14T15:32:05.060Z,39.1
2018-01-14T15:34:05.838Z,39.1
2018-01-14T15:36:10.702Z,39.1
2018-01-14T15:38:05.484Z,39.1
2018-01-14T15:40:05.227Z,38.9
2018-01-14T15:42:08.563Z,39
2018-01-14T15:44:07.884Z,38.9
2018-01-14T15:46:05.748Z,39
2018-01-14T15:48:08.043Z,39
2018-01-14T15:50:05.327Z,39
2018-01-14T15:52:05.383Z,38.9
2018-01-14T15:54:05.693Z,39.3
2018-01-14T15:56:05.448Z,39.2
2018-01-14T15:58:05.713Z,39
2018-01-14T16:00:05.522Z,39
2018-01-14T16:02:05.305Z,39
2018-01-14T16:04:05.638Z,39
2018-01-14T16:06:06.217Z,39
2018-01-14T16:08:09.534Z,39
2018-01-14T16:10:05.294Z,39
2018-01-14T16:12:05.789Z,39
2018-01-14T16:14:05.595Z,39
2018-01-14T16:16:05.868Z,39
2018-01-14T16:18:05.961Z,39.5
2018-01-14T16:20:08.464Z,39.6
2018-01-14T16:22:05.234Z,39.6
2018-01-14T16:24:06.007Z,39.6
2018-01-14T16:26:05.815Z,39.8
2018-01-14T16:28:05.555Z,40
2018-01-14T16:30:08.412Z,39.9
2018-01-14T16:32:05.735Z,39.9
2018-01-14T16:34:05.478Z,39.9
2018-01-14T16:36:05.309Z,40
2018-01-14T16:38:05.288Z,40
2018-01-14T16:40:05.117Z,40
2018-01-14T16:42:05.907Z,40
2018-01-14T16:44:05.861Z,40.1
2018-01-14T16:46:05.626Z,40
2018-01-14T16:48:05.924Z,40.1
2018-01-14T16:50:05.672Z,40.1
2018-01-14T16:52:05.412Z,40.2
2018-01-14T16:54:05.181Z,40.1
2018-01-14T16:56:08.532Z,40.1
2018-01-14T16:58:05.337Z,40.1
2018-01-14T17:00:05.646Z,40.2
2018-01-14T17:02:05.418Z,40.2
2018-01-14T17:04:05.242Z,40.5
2018-01-14T17:06:05.712Z,40.4
2018-01-14T17:08:13.401Z,40.5
2018-01-14T17:10:05.232Z,40.5
2018-01-14T17:12:06.260Z,40.5
2018-01-14T17:14:08.525Z,40.5
2018-01-14T17:16:05.255Z,40.5
2018-01-14T17:18:08.335Z,40.5
2018-01-14T17:20:05.090Z,40.5
2018-01-14T17:22:05.340Z,40.6
2018-01-14T17:24:05.404Z,40.6
2018-01-14T17:26:10.285Z,40.6
2018-01-14T17:28:06.034Z,40.6
2018-01-14T17:30:10.821Z,40.8
2018-01-14T17:32:10.622Z,40.7
2018-01-14T17:34:05.652Z,40.7
2018-01-14T17:36:08.335Z,40.6
2018-01-14T17:38:05.753Z,40.5
2018-01-14T17:40:05.946Z,42.2
2018-01-14T17:42:05.691Z,42.1
2018-01-14T17:44:07.971Z,41.8
2018-01-14T17:46:06.974Z,41.7
2018-01-14T17:48:21.769Z,41.8
2018-01-14T17:50:06.025Z,41.8
2018-01-14T17:52:07.557Z,41.8
2018-01-14T17:54:06.377Z,41.8
2018-01-14T17:56:06.268Z,41.5
2018-01-14T17:58:05.864Z,41.8
2018-01-14T18:00:06.420Z,41.7
2018-01-14T18:02:07.050Z,41.8
2018-01-14T18:04:06.693Z,41.5
2018-01-14T18:06:05.229Z,41.5
2018-01-14T18:08:09.830Z,41.5
2018-01-14T18:10:06.657Z,41.7
2018-01-14T18:12:10.895Z,41.5
2018-01-14T18:14:05.871Z,41.5
2018-01-14T18:16:06.931Z,41.6
2018-01-14T18:18:06.188Z,41.5
2018-01-14T18:20:06.602Z,41.6
2018-01-14T18:22:06.403Z,41.5
2018-01-14T18:24:10.650Z,41.5
2018-01-14T18:26:05.411Z,41.4
2018-01-14T18:28:12.753Z,41.4
2018-01-14T18:30:09.298Z,41.4
2018-01-14T18:32:05.191Z,41.4
2018-01-14T18:34:05.467Z,41.4
2018-01-14T18:36:05.221Z,41.4
2018-01-14T18:38:06.134Z,41.5
2018-01-14T18:40:06.104Z,41.5
2018-01-14T18:42:08.422Z,41.6
2018-01-14T18:44:05.382Z,41.6
2018-01-14T18:46:06.405Z,41.6
2018-01-14T18:48:06.181Z,41.6
2018-01-14T18:50:08.576Z,41.6
2018-01-14T18:52:05.591Z,41.7
2018-01-14T18:54:10.462Z,41.7
2018-01-14T18:56:05.242Z,41.7
2018-01-14T18:58:08.637Z,41.7
2018-01-14T19:00:05.386Z,41.7
2018-01-14T19:02:05.126Z,41.8
2018-01-14T19:04:11.081Z,41.8
2018-01-14T19:06:05.833Z,41.7
2018-01-14T19:08:06.056Z,41.7
2018-01-14T19:10:05.870Z,41.6
2018-01-14T19:12:06.583Z,41.6
2018-01-14T19:14:05.213Z,41.7
2018-01-14T19:16:05.945Z,41.7
2018-01-14T19:18:07.369Z,41.7
2018-01-14T19:20:10.122Z,41.7
2018-01-14T19:22:05.828Z,41.8
2018-01-14T19:24:06.020Z,41.8
2018-01-14T19:26:05.771Z,41.9
2018-01-14T19:28:05.837Z,41.9
2018-01-14T19:30:05.810Z,41.9
2018-01-14T19:32:08.120Z,42
2018-01-14T19:34:08.424Z,42.1
2018-01-14T19:36:10.296Z,42
2018-01-14T19:38:05.298Z,42.1
2018-01-14T19:40:05.579Z,42
2018-01-14T19:42:05.380Z,42
2018-01-14T19:44:05.095Z,42
2018-01-14T19:46:05.849Z,42
2018-01-14T19:48:13.705Z,42
2018-01-14T19:50:06.279Z,42.1
2018-01-14T19:52:10.244Z,42.1
2018-01-14T19:54:14.601Z,42
2018-01-14T19:56:05.662Z,42
2018-01-14T19:58:05.834Z,41.9
2018-01-14T20:00:06.043Z,42
2018-01-14T20:02:13.185Z,42
2018-01-14T20:04:05.912Z,42
2018-01-14T20:06:05.692Z,42
2018-01-14T20:08:05.526Z,41.9
2018-01-14T20:10:07.834Z,41.9
2018-01-14T20:12:05.600Z,42
2018-01-14T20:14:05.905Z,42
2018-01-14T20:16:05.735Z,42.1
2018-01-14T20:18:05.832Z,42.3
2018-01-14T20:20:05.594Z,42.1
2018-01-14T20:22:08.399Z,42.1
2018-01-14T20:24:10.514Z,42.1
2018-01-14T20:26:05.352Z,42.1
2018-01-14T20:28:12.777Z,42.1
2018-01-14T20:30:05.847Z,42.1
2018-01-14T20:32:08.204Z,42.1
2018-01-14T20:34:05.956Z,42.1
2018-01-14T20:36:05.729Z,42.1
2018-01-14T20:38:06.013Z,42.1
2018-01-14T20:40:05.760Z,42.1
2018-01-14T20:42:05.548Z,42.2
2018-01-14T20:44:05.265Z,42.1
2018-01-14T20:46:06.035Z,42.1
2018-01-14T20:48:05.759Z,42.1
2018-01-14T20:50:08.231Z,42.1
2018-01-14T20:52:18.123Z,42.1
2018-01-14T20:54:09.801Z,42.3
2018-01-14T20:56:05.349Z,42.3
2018-01-14T20:58:05.145Z,42.3
2018-01-14T21:00:05.460Z,42.3
2018-01-14T21:02:05.086Z,42.3
2018-01-14T21:04:05.827Z,42.1
2018-01-14T21:06:05.588Z,42.3
2018-01-14T21:08:07.872Z,42.1
2018-01-14T21:10:05.687Z,42.1
2018-01-14T21:12:08.251Z,42.1
2018-01-14T21:14:06.071Z,42.1
2018-01-14T21:16:05.950Z,42.3
2018-01-14T21:18:05.964Z,42.3
2018-01-14T21:20:05.921Z,42.3
2018-01-14T21:22:05.717Z,42.4
2018-01-14T21:24:05.608Z,42.5
2018-01-14T21:26:05.419Z,42.4
2018-01-14T21:28:05.249Z,42.4
2018-01-14T21:30:05.076Z,42.4
2018-01-14T21:32:10.978Z,42.6
2018-01-14T21:34:08.991Z,42.5
2018-01-14T21:36:06.036Z,42.4
2018-01-14T21:38:05.875Z,42.5
2018-01-14T21:40:05.574Z,42.6
2018-01-14T21:42:05.390Z,42.6
2018-01-14T21:44:05.697Z,42.6
2018-01-14T21:46:05.427Z,42.6
2018-01-14T21:48:05.753Z,42.6
2018-01-14T21:50:05.033Z,42.6
2018-01-14T21:52:07.900Z,42.5
2018-01-14T21:54:10.713Z,42.4
2018-01-14T21:56:05.987Z,42.5
2018-01-14T21:58:05.770Z,42.5
2018-01-14T22:00:05.655Z,42.5
2018-01-14T22:02:05.401Z,42.4
2018-01-14T22:04:05.152Z,42.6
2018-01-14T22:06:05.460Z,42.6
2018-01-14T22:08:05.262Z,42.6
2018-01-14T22:10:06.042Z,42.6
2018-01-14T22:12:05.824Z,42.5
2018-01-14T22:14:05.551Z,42.6
2018-01-14T22:16:08.337Z,42.7
2018-01-14T22:18:05.327Z,42.5
2018-01-14T22:20:10.455Z,42.5
2018-01-14T22:22:05.208Z,42.7
2018-01-14T22:24:06.065Z,42.7
2018-01-14T22:26:05.823Z,42.6
2018-01-14T22:28:08.114Z,42.7
2018-01-14T22:30:06.044Z,42.8
2018-01-14T22:32:05.785Z,42.8
2018-01-14T22:34:09.119Z,42.8
2018-01-14T22:36:07.891Z,42.7
2018-01-14T22:38:05.931Z,42.7
2018-01-14T22:40:10.723Z,42.7
2018-01-14T22:42:05.466Z,42.7
2018-01-14T22:44:06.403Z,42.7
2018-01-14T22:46:05.182Z,42.7
2018-01-14T22:48:05.959Z,42.9
2018-01-14T22:50:10.360Z,42.9
2018-01-14T22:52:05.179Z,42.9
2018-01-14T22:54:05.961Z,42.9
2018-01-14T22:56:07.770Z,42.9
2018-01-14T22:58:05.548Z,43
2018-01-14T23:00:05.311Z,42.9
2018-01-14T23:02:05.006Z,42.9
2018-01-14T23:04:08.271Z,42.9
2018-01-14T23:06:05.493Z,42.9
2018-01-14T23:08:05.224Z,43.1
2018-01-14T23:10:05.979Z,43.2
2018-01-14T23:12:08.304Z,43.2
2018-01-14T23:14:05.083Z,42.9
2018-01-14T23:16:05.934Z,42.9
2018-01-14T23:18:10.492Z,42.8
2018-01-14T23:20:12.844Z,42.8
2018-01-14T23:22:05.734Z,42.9
2018-01-14T23:24:08.283Z,42.9
2018-01-14T23:26:05.054Z,42.9
2018-01-14T23:28:07.817Z,43
2018-01-14T23:30:06.020Z,42.9
2018-01-14T23:32:05.389Z,43
2018-01-14T23:34:05.145Z,43
2018-01-14T23:36:05.937Z,43
2018-01-14T23:38:05.702Z,43
2018-01-14T23:40:05.443Z,42.8
2018-01-14T23:42:05.229Z,43.1
2018-01-14T23:44:08.502Z,42.8
2018-01-14T23:46:05.278Z,42.8
2018-01-14T23:48:05.043Z,42.9
2018-01-14T23:50:08.424Z,42.8
2018-01-14T23:52:05.706Z,42.8
2018-01-14T23:54:05.604Z,42.8
2018-01-14T23:56:10.425Z,42.9
2018-01-14T23:58:05.218Z,42.8
